Time;durP1;ratioP1;P1;durP2;ratioP2;P2;SDS_P1;SDS_P2;PMS_P1;PMS_P2;Temp;Humidity;BMP_temperature;BMP_pressure;BME280_temperature;BME280_humidity;BME280_pressure;Samples;Min_cycle;Max_cycle;Signal;HPM_P1;HPM_P2
2022/06/15 00:02:08;;;;;;;6.13;4.53;;;12.00;99.90;;;;;;5034284;28;20559;-26
2022/06/15 00:04:34;;;;;;;5.53;4.20;;;12.00;99.90;;;;;;5034387;28;20513;-26
2022/06/15 00:07:00;;;;;;;5.55;4.43;;;11.90;99.90;;;;;;5034495;28;20416;-26
2022/06/15 00:09:26;;;;;;;5.75;4.43;;;11.90;99.90;;;;;;5033867;28;20056;-27
2022/06/15 00:11:52;;;;;;;6.70;4.72;;;11.80;99.90;;;;;;5034004;28;20037;-27
2022/06/15 00:14:23;;;;;;;8.23;4.07;;;11.80;99.90;;;;;;5034043;28;20396;-27
2022/06/15 00:16:50;;;;;;;5.85;4.88;;;11.80;99.90;;;;;;5033967;28;20033;-27
2022/06/15 00:19:16;;;;;;;4.85;4.45;;;11.80;99.90;;;;;;5034687;28;20041;-27
2022/06/15 00:21:42;;;;;;;6.60;4.40;;;11.70;99.90;;;;;;5034058;28;20042;-27
2022/06/15 00:24:08;;;;;;;5.75;4.78;;;11.70;99.90;;;;;;5034110;28;20077;-27
2022/06/15 00:26:34;;;;;;;6.15;3.90;;;11.70;99.90;;;;;;5033109;28;20042;-27
2022/06/15 00:29:00;;;;;;;5.88;4.10;;;11.70;99.90;;;;;;5015290;28;20096;-27
2022/06/15 00:31:26;;;;;;;6.57;4.03;;;11.70;99.90;;;;;;5033692;28;20692;-27
2022/06/15 00:33:51;;;;;;;5.13;4.47;;;11.60;99.90;;;;;;5015698;28;20055;-27
2022/06/15 00:36:19;;;;;;;6.10;4.10;;;11.60;99.90;;;;;;5033879;28;20056;-27
2022/06/15 00:38:56;;;;;;;7.90;4.40;;;11.60;99.90;;;;;;5033550;28;20045;-27
2022/06/15 00:41:35;;;;;;;6.22;4.80;;;11.60;99.90;;;;;;5034017;28;20090;-27
2022/06/15 00:44:26;;;;;;;5.22;4.32;;;11.50;99.90;;;;;;5016507;28;20116;-27
2022/06/15 00:46:57;;;;;;;6.68;3.80;;;11.50;99.90;;;;;;5033646;28;20037;-27
2022/06/15 00:49:28;;;;;;;4.85;4.07;;;11.40;99.90;;;;;;5033478;28;20045;-27
2022/06/15 00:51:57;;;;;;;7.13;4.28;;;11.40;99.90;;;;;;5033507;28;20029;-27
2022/06/15 00:54:24;;;;;;;8.73;4.45;;;11.40;99.90;;;;;;5033356;28;20120;-27
2022/06/15 00:56:51;;;;;;;4.40;4.00;;;11.30;99.90;;;;;;5033152;28;20044;-27
2022/06/15 00:59:31;;;;;;;5.35;4.20;;;11.30;99.90;;;;;;5033088;28;20072;-27
2022/06/15 01:01:57;;;;;;;6.50;4.60;;;11.30;99.90;;;;;;5032921;28;20041;-27
2022/06/15 01:04:24;;;;;;;6.80;4.35;;;11.30;99.90;;;;;;5014888;28;20421;-27
2022/06/15 01:07:04;;;;;;;7.97;5.28;;;11.30;99.90;;;;;;5032737;28;20045;-27
2022/06/15 01:09:34;;;;;;;4.82;4.43;;;11.20;99.90;;;;;;5032978;28;20401;-27
2022/06/15 01:12:15;;;;;;;5.78;4.63;;;11.20;99.90;;;;;;5033135;28;20531;-27
2022/06/15 01:14:53;;;;;;;6.80;4.85;;;11.20;99.90;;;;;;5033411;28;20041;-26
2022/06/15 01:17:25;;;;;;;5.05;4.45;;;11.20;99.90;;;;;;5032877;28;20120;-27
2022/06/15 01:20:09;;;;;;;6.45;4.18;;;11.10;99.90;;;;;;5015000;28;20045;-27
2022/06/15 01:23:07;;;;;;;9.65;5.03;;;11.10;99.90;;;;;;5032757;28;20049;-28
2022/06/15 01:25:41;;;;;;;7.03;4.63;;;11.10;99.90;;;;;;5032715;28;20050;-27
2022/06/15 01:28:10;;;;;;;6.22;4.63;;;11.10;99.90;;;;;;5014774;28;20103;-27
2022/06/15 01:31:00;;;;;;;5.63;4.45;;;11.00;99.90;;;;;;5032776;28;20120;-27
2022/06/15 01:33:43;;;;;;;7.05;4.72;;;11.00;99.90;;;;;;5032848;28;20037;-27
2022/06/15 01:36:38;;;;;;;5.55;4.72;;;11.00;99.90;;;;;;5032731;28;20554;-27
2022/06/15 01:39:09;;;;;;;;;;;10.90;99.90;;;;;;5033070;28;20050;-27
2022/06/15 01:41:57;;;;;;;6.70;4.95;;;10.90;99.90;;;;;;5032593;28;19921;-27
2022/06/15 01:44:33;;;;;;;5.57;4.63;;;10.90;99.90;;;;;;4991794;28;20132;-27
2022/06/15 01:47:15;;;;;;;6.82;4.68;;;10.90;99.90;;;;;;5032619;28;20041;-27
2022/06/15 01:49:57;;;;;;;5.75;4.43;;;10.90;99.90;;;;;;5031847;28;20045;-27
2022/06/15 01:52:28;;;;;;;6.35;4.82;;;10.80;99.90;;;;;;5032493;28;20030;-27
2022/06/15 01:55:05;;;;;;;7.00;5.55;;;10.80;99.90;;;;;;5014623;28;20110;-27
2022/06/15 01:57:33;;;;;;;6.18;4.45;;;10.80;99.90;;;;;;5032066;28;20061;-27
2022/06/15 02:00:10;;;;;;;7.55;4.82;;;10.80;99.90;;;;;;5032028;28;20540;-27
2022/06/15 02:02:42;;;;;;;10.00;5.32;;;10.70;99.90;;;;;;5014237;28;20041;-27
2022/06/15 02:05:25;;;;;;;7.28;5.43;;;10.70;99.90;;;;;;5031849;28;20350;-27
2022/06/15 02:07:59;;;;;;;7.38;5.07;;;10.70;99.90;;;;;;5031616;28;20493;-27
2022/06/15 02:10:32;;;;;;;6.00;5.35;;;10.70;99.90;;;;;;5031898;28;20041;-27
2022/06/15 02:13:07;;;;;;;6.43;5.50;;;10.70;99.90;;;;;;5031287;28;20073;-27
2022/06/15 02:15:36;;;;;;;7.82;6.20;;;10.70;99.90;;;;;;5030536;28;20041;-27
2022/06/15 02:18:07;;;;;;;8.40;6.35;;;10.60;99.90;;;;;;5031642;28;20448;-27
2022/06/15 02:20:37;;;;;;;6.07;5.47;;;10.60;99.90;;;;;;5031795;28;20544;-27
2022/06/15 02:23:06;;;;;;;8.43;6.75;;;10.60;99.90;;;;;;5032118;28;20523;-27
2022/06/15 02:25:35;;;;;;;6.85;6.15;;;10.60;99.90;;;;;;5031383;28;20041;-27
2022/06/15 02:28:02;;;;;;;7.97;6.30;;;10.60;99.90;;;;;;5031228;28;20037;-27
2022/06/15 02:30:30;;;;;;;8.25;5.82;;;10.60;99.90;;;;;;5031427;28;20480;-27
2022/06/15 02:32:55;;;;;;;9.20;6.47;;;10.60;99.90;;;;;;5045135;28;20040;-27
2022/06/15 02:35:22;;;;;;;7.65;6.10;;;10.50;99.90;;;;;;5043641;28;20044;-29
2022/06/15 02:37:50;;;;;;;7.45;5.63;;;10.50;99.90;;;;;;5046800;28;20033;-26
2022/06/15 02:40:21;;;;;;;9.05;6.43;;;10.50;99.90;;;;;;5031414;28;20037;-26
2022/06/15 02:42:48;;;;;;;8.07;6.70;;;10.50;99.90;;;;;;5032935;28;20037;-26
2022/06/15 02:45:34;;;;;;;10.65;5.63;;;10.50;99.90;;;;;;5044987;28;20056;-26
2022/06/15 02:48:01;;;;;;;8.30;6.15;;;10.40;99.90;;;;;;5031315;28;20071;-26
2022/06/15 02:50:33;;;;;;;7.53;6.10;;;10.40;99.90;;;;;;5013175;28;20053;-26
2022/06/15 02:53:06;;;;;;;7.57;5.97;;;10.40;99.90;;;;;;5032005;28;20374;-26
2022/06/15 02:55:33;;;;;;;8.02;6.18;;;10.40;99.90;;;;;;5051173;28;20570;-26
2022/06/15 02:58:05;;;;;;;8.20;5.90;;;10.40;99.90;;;;;;5051002;28;20221;-26
2022/06/15 03:00:31;;;;;;;9.73;7.00;;;10.40;99.90;;;;;;5038927;28;20076;-26
2022/06/15 03:02:57;;;;;;;8.88;6.75;;;10.30;99.90;;;;;;5041537;28;20162;-26
2022/06/15 03:05:22;;;;;;;10.07;6.50;;;10.30;99.90;;;;;;5050587;28;20047;-26
2022/06/15 03:07:48;;;;;;;9.20;7.65;;;10.30;99.90;;;;;;5050570;28;20481;-26
2022/06/15 03:10:14;;;;;;;8.30;7.20;;;10.30;99.90;;;;;;5032503;28;20053;-26
2022/06/15 03:12:39;;;;;;;11.18;7.45;;;10.30;99.90;;;;;;5046847;28;20496;-26
2022/06/15 03:15:06;;;;;;;8.90;7.53;;;10.30;99.90;;;;;;5030273;28;20108;-26
2022/06/15 03:17:32;;;;;;;10.30;7.88;;;10.30;99.90;;;;;;5046932;28;20029;-26
2022/06/15 03:19:57;;;;;;;10.10;7.60;;;10.30;99.90;;;;;;5050997;28;20037;-26
2022/06/15 03:22:23;;;;;;;9.88;7.78;;;10.30;99.90;;;;;;5051144;28;20110;-27
2022/06/15 03:24:49;;;;;;;11.15;7.93;;;10.30;99.90;;;;;;5038152;28;20030;-28
2022/06/15 03:27:17;;;;;;;8.48;7.63;;;10.30;99.90;;;;;;5029127;28;20041;-29
2022/06/15 03:29:43;;;;;;;13.02;8.02;;;10.30;99.90;;;;;;5038903;28;20045;-29
2022/06/15 03:32:12;;;;;;;11.13;7.88;;;10.30;99.90;;;;;;5043155;28;20496;-29
2022/06/15 03:34:38;;;;;;;11.13;8.05;;;10.30;99.90;;;;;;5047807;28;20404;-28
2022/06/15 03:37:04;;;;;;;12.20;8.75;;;10.40;99.90;;;;;;5048995;28;20232;-29
2022/06/15 03:39:29;;;;;;;12.43;8.90;;;10.40;99.90;;;;;;5041159;28;20075;-28
2022/06/15 03:42:05;;;;;;;11.82;8.95;;;10.40;99.90;;;;;;5033688;28;20136;-29
2022/06/15 03:44:31;;;;;;;10.30;8.88;;;10.40;99.90;;;;;;5034238;28;20156;-28
2022/06/15 03:46:56;;;;;;;11.48;9.60;;;10.40;99.90;;;;;;5044263;28;20101;-29
2022/06/15 03:49:22;;;;;;;14.48;9.85;;;10.40;99.90;;;;;;5040288;28;20504;-29
2022/06/15 03:51:48;;;;;;;12.15;9.45;;;10.50;99.90;;;;;;5048597;28;20037;-29
2022/06/15 03:54:13;;;;;;;11.85;8.73;;;10.50;99.90;;;;;;5040848;28;20091;-28
2022/06/15 03:56:49;;;;;;;12.32;9.23;;;10.50;99.90;;;;;;5041017;28;20033;-29
2022/06/15 03:59:15;;;;;;;11.82;8.93;;;10.50;99.90;;;;;;5040448;28;20492;-28
2022/06/15 04:01:41;;;;;;;12.75;9.73;;;10.50;99.90;;;;;;5045977;28;20033;-28
2022/06/15 04:04:07;;;;;;;13.13;9.05;;;10.60;99.90;;;;;;5039087;28;20033;-29
2022/06/15 04:06:33;;;;;;;12.10;9.25;;;10.60;99.90;;;;;;5036718;28;20091;-29
2022/06/15 04:08:59;;;;;;;15.55;9.43;;;10.60;99.90;;;;;;5040123;28;20045;-28
2022/06/15 04:14:10;;;;;;;15.93;9.93;;;10.70;99.90;;;;;;5035806;28;20045;-28
2022/06/15 04:16:36;;;;;;;11.55;8.63;;;10.70;99.90;;;;;;5044618;28;20260;-29
2022/06/15 04:19:04;;;;;;;10.45;8.45;;;10.80;99.90;;;;;;5038286;28;20124;-29
2022/06/15 04:21:30;;;;;;;13.73;9.15;;;10.80;99.90;;;;;;5038343;28;20555;-28
2022/06/15 04:23:56;;;;;;;13.43;10.40;;;10.80;99.90;;;;;;5020424;28;20041;-28
2022/06/15 04:26:22;;;;;;;15.10;9.25;;;10.80;99.90;;;;;;5039371;28;20075;-29
2022/06/15 04:28:48;;;;;;;14.20;9.57;;;10.90;99.90;;;;;;5042223;28;20061;-29
2022/06/15 04:31:16;;;;;;;13.43;9.77;;;10.90;99.90;;;;;;5038582;28;20095;-29
2022/06/15 04:33:43;;;;;;;11.55;10.18;;;11.00;99.90;;;;;;5027052;28;20087;-29
2022/06/15 04:36:12;;;;;;;11.05;8.43;;;11.00;99.90;;;;;;5045169;28;20041;-29
2022/06/15 04:38:38;;;;;;;12.45;9.30;;;11.00;99.90;;;;;;5043063;28;20045;-29
2022/06/15 04:41:04;;;;;;;12.82;10.63;;;11.10;99.90;;;;;;5034371;28;20507;-29
2022/06/15 04:43:30;;;;;;;12.90;9.88;;;11.20;99.90;;;;;;5049098;28;20329;-29
2022/06/15 04:45:56;;;;;;;13.35;11.25;;;11.20;99.90;;;;;;5048879;28;20051;-29
2022/06/15 04:48:22;;;;;;;12.07;10.52;;;11.30;99.90;;;;;;5048096;28;20033;-29
2022/06/15 04:50:48;;;;;;;14.77;11.13;;;11.30;99.90;;;;;;5027479;28;20045;-28
2022/06/15 04:53:14;;;;;;;14.70;10.10;;;11.40;99.90;;;;;;5044068;28;20382;-28
2022/06/15 04:55:40;;;;;;;13.50;9.10;;;11.40;99.90;;;;;;5044675;28;20029;-28
2022/06/15 04:58:05;;;;;;;12.98;9.68;;;11.40;99.90;;;;;;5044440;28;20037;-28
2022/06/15 05:00:37;;;;;;;12.80;10.40;;;11.50;99.90;;;;;;5045656;28;20115;-29
2022/06/15 05:03:03;;;;;;;12.52;9.77;;;11.50;99.90;;;;;;5048526;28;20052;-29
2022/06/15 05:05:29;;;;;;;12.27;10.02;;;11.60;99.90;;;;;;5026881;28;20182;-29
2022/06/15 05:07:55;;;;;;;14.13;11.13;;;11.60;99.90;;;;;;5031029;28;20045;-28
2022/06/15 05:10:23;;;;;;;14.85;11.80;;;11.70;99.90;;;;;;5049786;28;20033;-29
2022/06/15 05:12:49;;;;;;;14.32;10.77;;;11.80;99.90;;;;;;5048577;28;20385;-29
2022/06/15 05:15:15;;;;;;;13.65;10.15;;;11.90;99.90;;;;;;5046148;28;20087;-29
2022/06/15 05:17:42;;;;;;;12.55;10.55;;;12.00;99.90;;;;;;5043490;28;20488;-29
2022/06/15 05:20:14;;;;;;;14.50;10.30;;;12.10;99.90;;;;;;5040879;28;20131;-29
2022/06/15 05:22:39;;;;;;;13.55;10.30;;;12.20;99.90;;;;;;5028420;28;20049;-29
2022/06/15 05:25:08;;;;;;;15.00;10.38;;;12.30;99.90;;;;;;5048365;28;20376;-29
2022/06/15 05:27:37;;;;;;;15.02;10.23;;;12.40;99.90;;;;;;5030633;28;20090;-29
2022/06/15 05:30:05;;;;;;;13.70;10.38;;;12.50;99.90;;;;;;5043819;28;20049;-29
2022/06/15 05:32:31;;;;;;;16.27;10.40;;;12.70;99.90;;;;;;5043495;28;20403;-29
2022/06/15 05:34:57;;;;;;;13.15;9.68;;;12.80;99.90;;;;;;5045980;28;20078;-29
2022/06/15 05:37:23;;;;;;;13.77;9.88;;;12.90;99.90;;;;;;5044064;28;20112;-29
2022/06/15 05:39:49;;;;;;;14.48;9.77;;;13.00;99.90;;;;;;5050301;28;20496;-29
2022/06/15 05:42:15;;;;;;;12.38;9.68;;;13.10;99.90;;;;;;5022322;28;20566;-29
2022/06/15 05:44:48;;;;;;;13.70;10.10;;;13.30;99.90;;;;;;5039443;28;20029;-29
2022/06/15 05:47:14;;;;;;;10.98;9.82;;;13.40;99.90;;;;;;5045588;28;20112;-29
2022/06/15 05:49:40;;;;;;;13.55;9.18;;;13.60;99.90;;;;;;5040771;28;20121;-29
2022/06/15 05:52:06;;;;;;;15.27;10.30;;;13.70;99.90;;;;;;5044004;28;20487;-28
2022/06/15 05:54:31;;;;;;;13.90;9.13;;;13.80;99.90;;;;;;5040344;28;20509;-28
2022/06/15 05:56:57;;;;;;;12.52;9.55;;;13.90;99.90;;;;;;5041852;28;20037;-28
2022/06/15 05:59:23;;;;;;;11.55;8.63;;;14.10;99.90;;;;;;5041944;28;20044;-28
2022/06/15 06:01:49;;;;;;;9.60;8.20;;;14.20;99.90;;;;;;5046984;28;20214;-29
2022/06/15 06:04:16;;;;;;;12.18;8.25;;;14.30;99.90;;;;;;5038668;28;20128;-28
2022/06/15 06:06:42;;;;;;;9.73;7.93;;;14.40;99.90;;;;;;5048010;28;20471;-28
2022/06/15 06:09:10;;;;;;;11.70;7.45;;;14.50;99.90;;;;;;5047597;28;20083;-29
2022/06/15 06:11:35;;;;;;;11.25;7.93;;;14.60;99.90;;;;;;5048959;28;20028;-29
2022/06/15 06:14:01;;;;;;;9.57;8.00;;;14.70;99.90;;;;;;5043063;28;20043;-28
2022/06/15 06:16:27;;;;;;;11.75;8.25;;;14.80;99.90;;;;;;5040290;28;20040;-29
2022/06/15 06:18:53;;;;;;;10.02;7.40;;;15.00;99.90;;;;;;5048887;28;20116;-29
2022/06/15 06:21:19;;;;;;;8.35;6.97;;;15.10;99.90;;;;;;5046901;28;20041;-29
2022/06/15 06:23:45;;;;;;;10.25;7.90;;;15.20;99.90;;;;;;5045056;28;20488;-29
2022/06/15 06:26:25;;;;;;;9.45;7.28;;;15.30;99.90;;;;;;5042847;28;20177;-29
2022/06/15 06:28:51;;;;;;;10.48;7.32;;;15.40;99.90;;;;;;5048394;28;20471;-29
2022/06/15 06:31:20;;;;;;;8.63;7.53;;;15.60;99.90;;;;;;5042976;28;20069;-29
2022/06/15 06:33:47;;;;;;;10.40;7.38;;;15.60;99.90;;;;;;5047428;28;20033;-29
2022/06/15 06:36:32;;;;;;;9.05;7.20;;;15.70;99.90;;;;;;5042930;28;20037;-29
2022/06/15 06:38:59;;;;;;;10.32;7.68;;;15.90;99.90;;;;;;5004660;28;20084;-29
2022/06/15 06:41:27;;;;;;;11.60;7.32;;;16.00;99.90;;;;;;5049023;28;20070;-29
2022/06/15 06:43:55;;;;;;;10.48;7.10;;;16.10;99.90;;;;;;5043887;28;20034;-29
2022/06/15 06:46:21;;;;;;;8.45;7.35;;;16.20;99.90;;;;;;5045521;28;20037;-29
2022/06/15 06:48:48;;;;;;;7.43;6.45;;;16.30;99.90;;;;;;5035131;28;20489;-29
2022/06/15 06:51:14;;;;;;;9.02;7.18;;;16.40;99.90;;;;;;5038128;28;20036;-28
2022/06/15 06:53:40;;;;;;;10.50;6.63;;;16.60;99.90;;;;;;5033312;28;20108;-29
2022/06/15 06:56:07;;;;;;;10.63;6.47;;;16.70;99.90;;;;;;5038265;28;20649;-29
2022/06/15 06:58:34;;;;;;;10.00;6.38;;;16.80;99.90;;;;;;5031845;28;20124;-29
2022/06/15 07:01:00;;;;;;;11.73;6.07;;;17.00;99.90;;;;;;5036693;28;20037;-29
2022/06/15 07:03:26;;;;;;;8.05;6.45;;;17.10;99.90;;;;;;5033165;28;20041;-29
2022/06/15 07:05:59;;;;;;;8.77;6.38;;;17.10;99.90;;;;;;5042674;28;20030;-29
2022/06/15 07:08:24;;;;;;;10.07;6.33;;;17.40;99.90;;;;;;5032073;28;20049;-29
2022/06/15 07:10:50;;;;;;;7.82;5.80;;;17.50;99.90;;;;;;5045772;28;20628;-29
2022/06/15 07:13:16;;;;;;;9.65;6.35;;;17.60;99.90;;;;;;5035025;28;20030;-28
2022/06/15 07:15:41;;;;;;;7.93;5.53;;;17.70;99.90;;;;;;5043695;28;20594;-29
2022/06/15 07:18:08;;;;;;;9.55;6.35;;;17.90;99.90;;;;;;5039117;28;20036;-29
2022/06/15 07:20:34;;;;;;;6.97;5.97;;;18.10;99.90;;;;;;5042398;28;20284;-29
2022/06/15 07:23:00;;;;;;;10.45;5.90;;;18.20;99.90;;;;;;5041166;28;20045;-29
2022/06/15 07:25:26;;;;;;;8.32;6.22;;;18.30;99.90;;;;;;5026196;28;20696;-29
2022/06/15 07:27:52;;;;;;;8.38;5.95;;;18.40;99.90;;;;;;5033549;28;20045;-29
2022/06/15 07:30:22;;;;;;;10.77;5.90;;;18.50;99.90;;;;;;4996138;28;20037;-29
2022/06/15 07:32:48;;;;;;;8.35;5.45;;;18.60;99.90;;;;;;5031159;28;20302;-29
2022/06/15 07:35:23;;;;;;;8.02;5.38;;;18.70;99.90;;;;;;5036646;28;20165;-29
2022/06/15 07:37:51;;;;;;;9.27;5.70;;;18.80;99.90;;;;;;5036023;28;20033;-29
2022/06/15 07:40:19;;;;;;;8.73;4.93;;;18.90;99.90;;;;;;5038091;28;20043;-29
2022/06/15 07:42:45;;;;;;;8.82;5.40;;;19.00;99.90;;;;;;5045587;28;20029;-29
2022/06/15 07:45:11;;;;;;;8.25;5.13;;;19.10;99.90;;;;;;5036488;28;20045;-29
2022/06/15 07:50:22;;;;;;;7.32;4.28;;;19.40;99.90;;;;;;5041671;28;20073;-29
2022/06/15 07:52:50;;;;;;;7.43;3.97;;;19.50;99.90;;;;;;5014826;28;20036;-29
2022/06/15 07:55:22;;;;;;;5.15;4.05;;;19.70;99.90;;;;;;5041250;28;20080;-30
2022/06/15 07:57:48;;;;;;;5.07;3.92;;;19.90;99.90;;;;;;5041619;28;20051;-29
2022/06/15 08:00:15;;;;;;;5.88;3.47;;;20.00;99.90;;;;;;5041984;28;20033;-29
2022/06/15 08:02:42;;;;;;;5.65;3.15;;;20.10;99.90;;;;;;5037725;28;20481;-29
2022/06/15 08:05:08;;;;;;;3.08;2.70;;;20.20;99.90;;;;;;5027345;28;20381;-29
2022/06/15 08:07:35;;;;;;;5.38;3.17;;;20.40;99.90;;;;;;5040388;28;20111;-29
2022/06/15 08:10:02;;;;;;;5.57;3.25;;;20.50;99.90;;;;;;5042607;28;20052;-28
2022/06/15 08:12:28;;;;;;;8.23;2.97;;;20.70;99.90;;;;;;5042661;28;20116;-28
2022/06/15 08:14:56;;;;;;;3.88;2.65;;;20.80;99.90;;;;;;5046156;28;20124;-28
2022/06/15 08:17:36;;;;;;;4.78;2.60;;;21.00;99.90;;;;;;5047343;28;20037;-29
2022/06/15 08:20:24;;;;;;;3.10;2.30;;;21.30;99.90;;;;;;5048452;28;20037;-29
2022/06/15 08:22:53;;;;;;;5.10;2.20;;;21.50;98.30;;;;;;5023141;28;20041;-29
2022/06/15 08:25:23;;;;;;;4.47;1.80;;;21.80;97.40;;;;;;5039116;28;20152;-29
2022/06/15 08:27:49;;;;;;;1.85;1.40;;;21.90;95.40;;;;;;5027592;28;20094;-29
2022/06/15 08:30:16;;;;;;;2.13;1.67;;;22.20;94.30;;;;;;5042813;28;20084;-29
2022/06/15 08:32:42;;;;;;;2.72;1.73;;;22.30;88.70;;;;;;5046178;28;20522;-29
2022/06/15 08:35:09;;;;;;;3.10;1.90;;;22.30;88.80;;;;;;5043714;28;20034;-29
2022/06/15 08:37:36;;;;;;;3.10;1.67;;;22.40;85.40;;;;;;5049826;28;20040;-29
2022/06/15 08:40:04;;;;;;;2.83;2.15;;;22.50;86.70;;;;;;5042654;28;20538;-29
2022/06/15 08:43:01;;;;;;;4.50;2.13;;;22.50;82.60;;;;;;5049881;28;20336;-29
2022/06/15 08:45:36;;;;;;;4.03;1.83;;;22.70;82.20;;;;;;5032251;28;20052;-29
2022/06/15 08:48:07;;;;;;;4.70;1.90;;;22.80;79.90;;;;;;5044322;28;20047;-29
2022/06/15 08:50:56;;;;;;;3.05;2.10;;;23.00;80.90;;;;;;5049759;28;20091;-29
2022/06/15 08:53:33;;;;;;;2.42;1.90;;;23.10;69.50;;;;;;5051450;28;20115;-29
2022/06/15 08:56:04;;;;;;;3.00;1.70;;;23.10;73.50;;;;;;5045330;28;20507;-30
2022/06/15 08:58:41;;;;;;;3.88;2.15;;;23.10;66.20;;;;;;5050569;28;20040;-30
2022/06/15 09:01:49;;;;;;;4.00;1.98;;;23.20;68.90;;;;;;5048128;28;20040;-30
2022/06/15 09:04:26;;;;;;;5.10;1.88;;;23.30;68.90;;;;;;5049064;28;20052;-29
2022/06/15 09:07:22;;;;;;;2.55;2.08;;;23.50;67.00;;;;;;5049884;28;20124;-29
2022/06/15 09:09:59;;;;;;;2.90;1.80;;;23.60;66.30;;;;;;5045929;28;20072;-30
2022/06/15 09:15:41;;;;;;;2.53;1.77;;;23.80;66.80;;;;;;5041176;28;20120;-29
2022/06/15 09:18:25;;;;;;;3.10;1.95;;;24.00;58.00;;;;;;5038678;28;20483;-30
2022/06/15 09:21:09;;;;;;;;;;;24.00;61.50;;;;;;5042009;28;20511;-30
2022/06/15 09:23:46;;;;;;;4.72;2.15;;;24.20;57.80;;;;;;5040086;28;19976;-29
2022/06/15 09:26:17;;;;;;;2.08;1.85;;;24.20;58.30;;;;;;5036633;28;20048;-28
2022/06/15 09:28:47;;;;;;;2.72;1.70;;;24.30;66.60;;;;;;5020886;28;20071;-29
2022/06/15 09:31:20;;;;;;;1.83;1.50;;;24.40;65.40;;;;;;5049527;28;20075;-29
2022/06/15 09:33:51;;;;;;;2.55;1.58;;;24.60;59.10;;;;;;5045109;28;20677;-29
2022/06/15 09:36:29;;;;;;;3.97;2.13;;;24.70;63.30;;;;;;5040012;28;20037;-29
2022/06/15 09:38:55;;;;;;;2.42;1.90;;;25.00;58.00;;;;;;5038025;28;20044;-30
2022/06/15 09:41:51;;;;;;;5.00;1.80;;;25.20;60.30;;;;;;5036785;28;20041;-30
2022/06/15 09:44:40;;;;;;;4.40;1.75;;;25.40;56.90;;;;;;5049039;28;20404;-30
2022/06/15 09:47:18;;;;;;;3.92;1.70;;;25.70;55.40;;;;;;5042962;28;20033;-30
2022/06/15 09:50:18;;;;;;;5.05;2.03;;;25.80;59.30;;;;;;5043350;28;20531;-31
2022/06/15 09:53:02;;;;;;;3.97;1.98;;;26.10;53.80;;;;;;5044226;28;20133;-30
2022/06/15 09:55:47;;;;;;;4.30;1.92;;;25.40;52.70;;;;;;5027526;28;20412;-30
2022/06/15 09:58:17;;;;;;;4.05;2.00;;;24.90;54.70;;;;;;5039315;28;20033;-30
2022/06/15 10:00:45;;;;;;;3.22;2.10;;;24.70;59.00;;;;;;5048938;28;20094;-30
2022/06/15 10:03:27;;;;;;;3.17;1.90;;;24.90;58.00;;;;;;5028639;28;20393;-31
2022/06/15 10:06:07;;;;;;;3.95;2.03;;;25.20;55.00;;;;;;5048117;28;20045;-30
2022/06/15 10:08:33;;;;;;;3.22;2.30;;;25.40;55.40;;;;;;5043393;28;20067;-30
2022/06/15 10:11:02;;;;;;;2.92;1.98;;;25.50;55.10;;;;;;5044889;28;20045;-30
2022/06/15 10:13:36;;;;;;;1.70;1.58;;;25.80;53.20;;;;;;5047647;28;20037;-31
2022/06/15 10:16:17;;;;;;;2.58;1.83;;;25.90;52.60;;;;;;5025184;28;20119;-31
2022/06/15 10:18:47;;;;;;;3.05;1.92;;;26.10;53.00;;;;;;5031991;28;20112;-30
2022/06/15 10:21:12;;;;;;;3.13;2.10;;;26.20;52.90;;;;;;5036104;28;20088;-30
2022/06/15 10:23:51;;;;;;;4.78;2.30;;;26.40;50.70;;;;;;5038453;28;20455;-31
2022/06/15 10:26:32;;;;;;;3.33;1.90;;;26.50;51.00;;;;;;5040243;28;20076;-31
2022/06/15 10:29:19;;;;;;;4.13;2.30;;;26.60;50.40;;;;;;5023165;28;20041;-31
2022/06/15 10:32:16;;;;;;;2.92;2.03;;;26.50;50.30;;;;;;5035998;28;20052;-31
2022/06/15 10:34:41;;;;;;;2.95;1.50;;;26.80;48.40;;;;;;5039692;28;20029;-31
2022/06/15 10:37:23;;;;;;;3.80;2.05;;;27.20;51.00;;;;;;5041143;28;20520;-31
2022/06/15 10:39:52;;;;;;;3.05;2.03;;;27.40;48.80;;;;;;5044992;28;20519;-30
2022/06/15 10:42:18;;;;;;;3.60;1.55;;;27.40;46.80;;;;;;5044960;28;20051;-29
2022/06/15 10:44:56;;;;;;;3.72;1.80;;;27.40;46.50;;;;;;5041782;28;20037;-29
2022/06/15 10:47:45;;;;;;;2.40;1.50;;;27.40;46.20;;;;;;5041729;28;20037;-29
2022/06/15 10:50:28;;;;;;;3.30;1.90;;;27.40;46.80;;;;;;5047497;28;20124;-29
2022/06/15 10:52:59;;;;;;;;;;;27.50;45.60;;;;;;5041319;28;20073;-29
2022/06/15 11:04:36;;;;;;;4.05;1.58;;;28.50;46.40;;;;;;5023584;28;20042;-30
2022/06/15 11:07:11;;;;;;;4.13;1.70;;;28.60;47.10;;;;;;5044491;28;20115;-30
2022/06/15 11:09:42;;;;;;;2.15;1.77;;;28.50;45.60;;;;;;5042508;28;20120;-30
2022/06/15 11:12:24;;;;;;;3.85;1.70;;;28.60;44.50;;;;;;5043531;28;20423;-30
2022/06/15 11:15:00;;;;;;;3.97;1.52;;;28.70;44.00;;;;;;5039500;28;20049;-30
2022/06/15 11:20:26;;;;;;;3.65;1.80;;;28.70;45.70;;;;;;5040617;28;20400;-29
2022/06/15 11:22:59;;;;;;;2.08;1.60;;;28.70;45.40;;;;;;5033158;28;20033;-30
2022/06/15 11:25:38;;;;;;;1.95;1.60;;;28.90;45.10;;;;;;5031572;28;20120;-30
2022/06/15 11:28:11;;;;;;;3.58;1.80;;;29.00;43.80;;;;;;5042962;28;20041;-30
2022/06/15 11:30:44;;;;;;;;;;;29.10;44.10;;;;;;5033540;28;20500;-30
2022/06/15 11:33:19;;;;;;;4.53;1.73;;;28.90;43.10;;;;;;5043165;28;19918;-30
2022/06/15 11:35:58;;;;;;;2.17;1.55;;;29.30;44.20;;;;;;5044699;28;20037;-30
2022/06/15 11:38:43;;;;;;;2.25;1.63;;;29.40;43.70;;;;;;5034645;28;20045;-30
2022/06/15 11:41:31;;;;;;;3.15;1.98;;;29.20;43.90;;;;;;5034518;28;20033;-30
2022/06/15 11:43:59;;;;;;;2.75;1.50;;;29.30;43.50;;;;;;5017301;28;20057;-29
2022/06/15 11:46:40;;;;;;;3.85;1.90;;;29.60;44.30;;;;;;5043022;28;20091;-30
2022/06/15 11:49:39;;;;;;;2.10;1.73;;;29.50;43.50;;;;;;5048191;28;20048;-30
2022/06/15 11:52:42;;;;;;;3.15;1.83;;;29.70;40.80;;;;;;5042212;28;20045;-30
2022/06/15 11:55:39;;;;;;;2.30;1.75;;;29.60;42.70;;;;;;5050637;28;20041;-30
2022/06/15 11:58:24;;;;;;;2.85;1.67;;;29.80;43.50;;;;;;5049182;28;20037;-30
2022/06/15 12:01:08;;;;;;;5.05;1.80;;;29.90;41.80;;;;;;5047539;28;20037;-30
2022/06/15 12:03:52;;;;;;;2.67;1.80;;;29.70;41.70;;;;;;5045783;28;20508;-29
2022/06/15 12:06:21;;;;;;;3.50;2.00;;;29.50;41.40;;;;;;5047797;28;20033;-30
2022/06/15 12:09:20;;;;;;;3.00;1.90;;;29.50;42.10;;;;;;5052081;28;20076;-30
2022/06/15 12:15:05;;;;;;;3.10;1.73;;;29.60;42.10;;;;;;5049695;28;20041;-30
2022/06/15 12:17:54;;;;;;;2.35;1.63;;;29.70;40.80;;;;;;5031208;28;20040;-30
2022/06/15 12:20:33;;;;;;;2.40;1.52;;;29.70;43.00;;;;;;5028395;28;20048;-30
2022/06/15 12:23:09;;;;;;;4.53;2.00;;;29.90;43.30;;;;;;5048306;28;20099;-30
2022/06/15 12:25:42;;;;;;;2.63;1.88;;;30.00;42.50;;;;;;5036836;28;20120;-30
2022/06/15 12:28:38;;;;;;;3.67;1.90;;;30.10;41.40;;;;;;5047046;28;20037;-30
2022/06/15 12:31:09;;;;;;;2.97;2.10;;;30.20;40.90;;;;;;5044247;28;20045;-30
2022/06/15 12:33:41;;;;;;;2.42;1.67;;;30.50;41.10;;;;;;5041266;28;20040;-30
2022/06/15 12:36:13;;;;;;;3.03;2.20;;;30.20;42.10;;;;;;5032452;28;20108;-30
2022/06/15 12:38:51;;;;;;;2.30;1.85;;;30.00;40.00;;;;;;5049516;28;20548;-30
2022/06/15 12:44:21;;;;;;;3.75;2.20;;;30.00;40.70;;;;;;5026353;28;20098;-30
2022/06/15 12:46:49;;;;;;;4.40;1.83;;;30.10;40.80;;;;;;5045326;28;20037;-30
2022/06/15 12:49:39;;;;;;;2.20;1.50;;;30.10;41.90;;;;;;5024767;28;20045;-30
2022/06/15 12:52:29;;;;;;;2.75;1.95;;;30.40;41.30;;;;;;5028998;28;20262;-30
2022/06/15 12:55:04;;;;;;;2.25;1.75;;;30.40;40.90;;;;;;5019663;28;20041;-30
2022/06/15 12:57:45;;;;;;;4.20;2.05;;;30.60;40.80;;;;;;5028761;28;20033;-31
2022/06/15 13:00:20;;;;;;;3.47;1.85;;;30.60;40.70;;;;;;5042871;28;20042;-31
2022/06/15 13:02:51;;;;;;;4.45;1.90;;;30.50;40.00;;;;;;5046041;28;20273;-30
2022/06/15 13:05:31;;;;;;;3.25;1.60;;;30.70;41.10;;;;;;5025240;28;20076;-30
2022/06/15 13:08:17;;;;;;;4.95;2.00;;;31.00;39.90;;;;;;5045795;28;20044;-31
2022/06/15 13:11:21;;;;;;;2.67;1.75;;;30.90;38.70;;;;;;5026315;28;20071;-31
2022/06/15 13:13:51;;;;;;;4.32;2.00;;;30.70;39.90;;;;;;5022637;28;20144;-30
2022/06/15 13:16:55;;;;;;;6.70;2.28;;;30.70;39.80;;;;;;5044428;28;20033;-30
2022/06/15 13:19:38;;;;;;;2.20;1.70;;;30.40;42.10;;;;;;5034163;28;20181;-31
2022/06/15 13:22:12;;;;;;;4.28;1.60;;;30.80;41.50;;;;;;5041340;28;20048;-31
2022/06/15 13:25:04;;;;;;;4.00;1.80;;;30.70;42.00;;;;;;5045608;28;20044;-31
2022/06/15 13:27:33;;;;;;;4.43;1.87;;;31.10;43.30;;;;;;5052759;28;20033;-31
2022/06/15 13:30:17;;;;;;;2.38;1.90;;;31.00;40.50;;;;;;5047611;28;20068;-30
2022/06/15 13:33:03;;;;;;;3.47;2.00;;;30.80;42.30;;;;;;5040726;28;20032;-30
2022/06/15 13:35:38;;;;;;;3.72;1.70;;;31.20;39.20;;;;;;5050260;28;20201;-30
2022/06/15 13:38:28;;;;;;;2.55;1.70;;;31.40;42.00;;;;;;5047514;28;20052;-30
2022/06/15 13:40:53;;;;;;;2.83;1.90;;;31.40;37.40;;;;;;5045549;28;20149;-30